Terminal Aerodrome Forecast
Issued by NWS

Home | Current Version | Previous Version | Text Only | Print | Product List | Glossary Off
Versions: 1 2 3 4 5 6 7 8 9 10 11 12 13 14 15

000
FTUS43 KTOP 231700
TAFMHK
TAF
KMHK 231736Z 2318/2418 31011KT P6SM BKN020
      TEMPO 2318/2322 6SM -RA BKN015
     FM232200 31011KT 6SM -RASN BKN009
     FM240000 34012KT 3SM -SN BR OVC008=

USA.gov is the U.S. government's official web portal to all federal, state and local government web resources and services.